createdAt,value
2023-02-19T00:00:45.274Z,0.00
2023-02-19T00:01:45.259Z,0.00
2023-02-19T00:02:45.241Z,0.00
2023-02-19T00:03:45.332Z,0.00
2023-02-19T00:04:45.241Z,0.00
2023-02-19T00:05:45.213Z,0.00
2023-02-19T00:06:45.214Z,0.00
2023-02-19T00:07:45.192Z,0.00
2023-02-19T00:08:45.192Z,0.00
2023-02-19T00:09:45.177Z,0.00
2023-02-19T00:10:45.153Z,0.00
2023-02-19T00:11:45.143Z,0.00
2023-02-19T00:12:45.145Z,0.00
2023-02-19T00:13:45.147Z,0.00
2023-02-19T00:14:45.122Z,0.00
2023-02-19T00:15:45.149Z,0.00
2023-02-19T00:16:45.104Z,0.00
2023-02-19T00:17:45.084Z,0.00
2023-02-19T00:18:45.085Z,0.00
2023-02-19T00:19:45.065Z,0.00
2023-02-19T00:20:45.066Z,0.00
2023-02-19T00:21:45.055Z,0.00
2023-02-19T00:22:45.026Z,0.00
2023-02-19T00:23:45.040Z,0.00
2023-02-19T00:24:45.010Z,0.00
2023-02-19T00:25:45.012Z,0.00
2023-02-19T00:26:45.074Z,0.00
2023-02-19T00:27:44.977Z,0.00
2023-02-19T00:28:45.001Z,0.00
2023-02-19T00:29:44.958Z,0.00
2023-02-19T00:30:45.018Z,0.00
2023-02-19T00:31:45.038Z,0.00
2023-02-19T00:32:44.929Z,0.00
2023-02-19T00:33:44.940Z,0.00
2023-02-19T00:34:44.903Z,0.00
2023-02-19T00:35:44.904Z,0.00
2023-02-19T00:36:44.901Z,0.00
2023-02-19T00:37:44.880Z,0.00
2023-02-19T00:38:44.889Z,0.00
2023-02-19T00:39:44.868Z,0.00
2023-02-19T00:40:44.845Z,0.00
2023-02-19T00:41:44.839Z,0.00
2023-02-19T00:42:44.847Z,0.00
2023-02-19T00:43:44.836Z,0.00
2023-02-19T00:44:44.833Z,0.00
2023-02-19T00:45:44.798Z,0.00
2023-02-19T00:46:44.782Z,0.00
2023-02-19T00:47:44.769Z,0.00
2023-02-19T00:48:44.782Z,0.00
2023-02-19T00:49:44.759Z,0.00
2023-02-19T00:50:44.765Z,0.00
2023-02-19T00:51:44.747Z,0.00
2023-02-19T00:52:44.727Z,0.00
2023-02-19T00:53:44.746Z,0.00
2023-02-19T00:54:44.700Z,0.00
2023-02-19T00:55:44.692Z,0.00
2023-02-19T00:56:44.693Z,0.00
2023-02-19T00:57:44.680Z,0.00
2023-02-19T00:58:44.683Z,0.00
2023-02-19T00:59:44.666Z,0.00
2023-02-19T01:00:44.633Z,0.00
2023-02-19T01:01:44.890Z,0.00
2023-02-19T01:02:44.614Z,0.00
2023-02-19T01:03:44.640Z,0.00
2023-02-19T01:04:44.606Z,0.00
2023-02-19T01:05:44.606Z,0.00
2023-02-19T01:06:44.595Z,0.00
2023-02-19T01:07:44.563Z,0.00
2023-02-19T01:08:44.577Z,0.00
2023-02-19T01:09:44.547Z,0.00
2023-02-19T01:10:44.525Z,0.00
2023-02-19T01:11:44.523Z,0.00
2023-02-19T01:12:44.512Z,0.00
2023-02-19T01:13:44.514Z,0.00
2023-02-19T01:14:44.490Z,0.00
2023-02-19T01:15:45.338Z,0.00
2023-02-19T01:16:44.469Z,0.00
2023-02-19T01:17:44.467Z,0.00
2023-02-19T01:18:44.464Z,0.00
2023-02-19T01:19:44.435Z,0.00
2023-02-19T01:20:44.437Z,0.00
2023-02-19T01:21:44.429Z,0.00
2023-02-19T01:22:44.395Z,0.00
2023-02-19T01:23:44.428Z,0.00
2023-02-19T01:24:44.377Z,0.00
2023-02-19T01:25:44.367Z,0.00
2023-02-19T01:26:44.357Z,0.00
2023-02-19T01:27:44.348Z,0.00
2023-02-19T01:28:44.368Z,0.00
2023-02-19T01:29:44.330Z,0.00
2023-02-19T01:30:44.310Z,0.00
2023-02-19T01:31:44.418Z,0.00
2023-02-19T01:32:44.310Z,0.00
2023-02-19T01:33:44.301Z,0.00
2023-02-19T01:34:44.269Z,0.00
2023-02-19T01:35:44.258Z,0.00
2023-02-19T01:36:44.252Z,0.00
2023-02-19T01:37:44.252Z,0.00
2023-02-19T01:38:44.279Z,0.00
2023-02-19T01:39:44.221Z,0.00
2023-02-19T01:40:44.211Z,0.00
2023-02-19T01:41:44.200Z,0.00
2023-02-19T01:42:44.199Z,0.00
2023-02-19T01:43:44.195Z,0.00
2023-02-19T01:44:44.168Z,0.00
2023-02-19T01:45:44.158Z,0.00
2023-02-19T01:46:44.170Z,0.00
2023-02-19T01:47:44.137Z,0.00
2023-02-19T01:48:44.147Z,0.00
2023-02-19T01:49:44.120Z,0.00
2023-02-19T01:50:44.107Z,0.00
2023-02-19T01:51:44.088Z,0.00
2023-02-19T01:52:44.087Z,0.00
2023-02-19T01:53:44.088Z,0.00
2023-02-19T01:54:44.067Z,0.00
2023-02-19T01:55:44.054Z,0.00
2023-02-19T01:56:44.050Z,0.00
2023-02-19T01:57:44.039Z,0.00
2023-02-19T01:58:44.051Z,0.00
2023-02-19T01:59:44.020Z,0.00
2023-02-19T02:00:44.021Z,0.00
2023-02-19T02:01:44.031Z,0.00
2023-02-19T02:02:43.993Z,0.00
2023-02-19T02:03:43.983Z,0.00
2023-02-19T02:04:43.963Z,0.00
2023-02-19T02:05:43.945Z,0.00
2023-02-19T02:06:43.953Z,0.00
2023-02-19T02:07:43.925Z,0.00
2023-02-19T02:08:43.943Z,0.00
2023-02-19T02:09:43.909Z,0.00
2023-02-19T02:10:43.895Z,0.00
2023-02-19T02:11:43.890Z,0.00
2023-02-19T02:12:43.877Z,0.00
2023-02-19T02:13:43.876Z,0.00
2023-02-19T02:14:43.857Z,0.00
2023-02-19T02:15:43.862Z,0.00
2023-02-19T02:16:43.847Z,0.00
2023-02-19T02:17:43.826Z,0.00
2023-02-19T02:18:43.830Z,0.00
2023-02-19T02:19:43.800Z,0.00
2023-02-19T02:20:43.803Z,0.00
2023-02-19T02:21:43.786Z,0.00
2023-02-19T02:22:43.773Z,0.00
2023-02-19T02:23:43.769Z,0.00
2023-02-19T02:24:43.781Z,0.00
2023-02-19T02:25:43.741Z,0.00
2023-02-19T02:26:43.725Z,0.00
2023-02-19T02:27:43.716Z,0.00
2023-02-19T02:28:43.705Z,0.00
2023-02-19T02:30:04.724Z,0.00
2023-02-19T02:30:43.701Z,0.00
2023-02-19T02:31:43.741Z,0.00
2023-02-19T02:32:43.670Z,0.00
2023-02-19T02:33:43.647Z,0.00
2023-02-19T02:34:43.668Z,0.00
2023-02-19T02:35:43.627Z,0.00
2023-02-19T02:36:43.619Z,0.00
2023-02-19T02:37:43.617Z,0.00
2023-02-19T02:38:43.611Z,0.00
2023-02-19T02:39:43.621Z,0.00
2023-02-19T02:40:43.586Z,0.00
2023-02-19T02:41:43.580Z,0.00
2023-02-19T02:42:43.560Z,0.00
2023-02-19T02:43:43.568Z,0.00
2023-02-19T02:44:43.562Z,0.00
2023-02-19T02:45:43.557Z,0.00
2023-02-19T02:46:43.520Z,0.00
2023-02-19T02:47:43.511Z,0.00
2023-02-19T02:48:43.501Z,0.00
2023-02-19T02:49:43.502Z,0.00
2023-02-19T02:50:43.472Z,0.00
2023-02-19T02:51:43.461Z,0.00
2023-02-19T02:52:43.472Z,0.00
2023-02-19T02:53:43.447Z,0.00
2023-02-19T02:54:43.454Z,0.00
2023-02-19T02:55:43.424Z,0.00
2023-02-19T02:56:43.413Z,0.00
2023-02-19T02:57:43.393Z,0.00
2023-02-19T02:58:43.396Z,0.00
2023-02-19T02:59:43.402Z,0.00
2023-02-19T03:00:43.383Z,0.00
2023-02-19T03:01:43.359Z,0.00
2023-02-19T03:02:43.346Z,0.00
2023-02-19T03:03:43.335Z,0.00
2023-02-19T03:04:43.345Z,0.00
2023-02-19T03:05:43.314Z,0.00
2023-02-19T03:06:43.312Z,0.00
2023-02-19T03:07:43.301Z,0.00
2023-02-19T03:08:43.278Z,0.00
2023-02-19T03:09:43.285Z,0.00
2023-02-19T03:10:43.278Z,0.00
2023-02-19T03:11:43.305Z,0.00
2023-02-19T03:12:43.249Z,0.00
2023-02-19T03:13:43.219Z,0.00
2023-02-19T03:14:43.239Z,0.00
2023-02-19T03:15:43.209Z,0.00
2023-02-19T03:16:43.267Z,0.00
2023-02-19T03:17:43.181Z,0.00
2023-02-19T03:18:43.173Z,0.00
2023-02-19T03:19:43.190Z,0.00
2023-02-19T03:20:43.156Z,0.00
2023-02-19T03:21:43.158Z,0.00
2023-02-19T03:22:43.130Z,0.00
2023-02-19T03:23:43.138Z,0.00
2023-02-19T03:24:43.132Z,0.00
2023-02-19T03:25:43.097Z,0.00
2023-02-19T03:26:43.097Z,0.00
2023-02-19T03:27:43.072Z,0.00
2023-02-19T03:28:43.076Z,0.00
2023-02-19T03:29:43.073Z,0.00
2023-02-19T03:30:43.042Z,0.00
2023-02-19T03:31:43.117Z,0.00
2023-02-19T03:32:43.025Z,0.00
2023-02-19T03:33:43.012Z,0.00
2023-02-19T03:34:43.049Z,0.00
2023-02-19T03:35:43.000Z,0.00
2023-02-19T03:36:42.996Z,0.00
2023-02-19T03:37:42.974Z,0.00
2023-02-19T03:38:42.967Z,0.00
2023-02-19T03:39:42.965Z,0.00
2023-02-19T03:40:42.937Z,0.00
2023-02-19T03:41:42.924Z,0.00
2023-02-19T03:42:42.915Z,0.00
2023-02-19T03:43:42.905Z,0.00
2023-02-19T03:44:42.928Z,0.00
2023-02-19T03:45:42.914Z,0.00
2023-02-19T03:46:42.882Z,0.00
2023-02-19T03:47:42.874Z,0.00
2023-02-19T03:48:42.851Z,0.00
2023-02-19T03:49:42.859Z,0.00
2023-02-19T03:50:42.839Z,0.00
2023-02-19T03:51:42.819Z,0.00
2023-02-19T03:52:42.824Z,0.00
2023-02-19T03:53:42.800Z,0.00
2023-02-19T03:54:42.811Z,0.00
2023-02-19T03:55:42.782Z,0.00
2023-02-19T03:56:42.778Z,0.00
2023-02-19T03:57:42.764Z,0.00
2023-02-19T03:58:42.754Z,0.00
2023-02-19T03:59:42.755Z,0.00
2023-02-19T04:00:42.738Z,0.00
2023-02-19T04:01:42.717Z,0.00
2023-02-19T04:02:42.716Z,0.00
2023-02-19T04:03:42.697Z,0.00
2023-02-19T04:04:42.780Z,0.00
2023-02-19T04:05:42.688Z,0.00
2023-02-19T04:06:42.668Z,0.00
2023-02-19T04:07:42.662Z,0.00
2023-02-19T04:08:42.650Z,0.00
2023-02-19T04:09:42.670Z,0.00
2023-02-19T04:10:42.636Z,0.00
2023-02-19T04:11:42.611Z,0.00
2023-02-19T04:12:42.611Z,0.00
2023-02-19T04:13:42.592Z,0.00
2023-02-19T04:14:42.615Z,0.00
2023-02-19T04:15:42.582Z,0.00
2023-02-19T04:16:42.655Z,0.00
2023-02-19T04:17:42.554Z,0.00
2023-02-19T04:18:42.544Z,0.00
2023-02-19T04:19:42.557Z,0.00
2023-02-19T04:20:42.528Z,0.00
2023-02-19T04:21:42.515Z,0.00
2023-02-19T04:22:42.509Z,0.00
2023-02-19T04:23:42.499Z,0.00
2023-02-19T04:24:42.506Z,0.00
2023-02-19T04:25:42.468Z,0.00
2023-02-19T04:26:42.470Z,0.00
2023-02-19T04:27:42.447Z,0.00
2023-02-19T04:28:42.436Z,0.00
2023-02-19T04:29:42.447Z,0.00
2023-02-19T04:30:42.530Z,0.00
2023-02-19T04:31:42.426Z,0.00
2023-02-19T04:32:42.396Z,0.00
2023-02-19T04:33:42.393Z,0.00
2023-02-19T04:34:42.397Z,0.00
2023-02-19T04:35:42.363Z,0.00
2023-02-19T04:36:42.354Z,0.00
2023-02-19T04:37:42.336Z,0.00
2023-02-19T04:38:42.327Z,0.00
2023-02-19T04:39:42.338Z,0.00
2023-02-19T04:40:42.315Z,0.00
2023-02-19T04:41:42.296Z,0.00
2023-02-19T04:42:42.288Z,0.00
2023-02-19T04:43:42.276Z,0.00
2023-02-19T04:44:42.287Z,0.00
2023-02-19T04:45:42.249Z,0.00
2023-02-19T04:46:43.222Z,0.00
2023-02-19T04:47:42.236Z,0.00
2023-02-19T04:48:42.225Z,0.00
2023-02-19T04:49:42.227Z,0.00
2023-02-19T04:50:42.229Z,0.00
2023-02-19T04:51:42.204Z,0.00
2023-02-19T04:52:42.180Z,0.00
2023-02-19T04:53:42.281Z,0.00
2023-02-19T04:54:42.181Z,0.00
2023-02-19T04:55:42.147Z,0.00
2023-02-19T04:56:42.141Z,0.00
2023-02-19T04:57:42.124Z,0.00
2023-02-19T04:58:42.111Z,0.00
2023-02-19T04:59:42.118Z,0.00
2023-02-19T05:00:42.103Z,0.00
2023-02-19T05:01:42.105Z,0.00
2023-02-19T05:02:42.079Z,0.00
2023-02-19T05:03:42.077Z,0.00
2023-02-19T05:04:42.099Z,0.00
2023-02-19T05:05:42.050Z,0.00
2023-02-19T05:06:42.033Z,0.00
2023-02-19T05:07:42.015Z,0.00
2023-02-19T05:08:42.017Z,0.00
2023-02-19T05:09:42.012Z,0.00
2023-02-19T05:10:42.025Z,0.00
2023-02-19T05:11:41.977Z,0.00
2023-02-19T05:12:41.974Z,0.00
2023-02-19T05:13:42.006Z,0.00
2023-02-19T05:14:41.949Z,0.00
2023-02-19T05:15:41.970Z,0.00
2023-02-19T05:16:41.927Z,0.00
2023-02-19T05:17:41.919Z,0.00
2023-02-19T05:18:41.908Z,0.00
2023-02-19T05:19:41.891Z,0.00
2023-02-19T05:20:41.901Z,0.00
2023-02-19T05:21:41.872Z,0.00
2023-02-19T05:22:41.864Z,0.00
2023-02-19T05:23:41.853Z,0.00
2023-02-19T05:24:41.851Z,0.00
2023-02-19T05:25:41.853Z,0.00
2023-02-19T05:26:44.053Z,0.00
2023-02-19T05:27:41.809Z,0.00
2023-02-19T05:28:41.811Z,0.00
2023-02-19T05:29:41.798Z,0.00
2023-02-19T05:30:41.793Z,0.00
2023-02-19T05:31:41.877Z,0.00
2023-02-19T05:32:41.762Z,0.00
2023-02-19T05:33:41.755Z,0.00
2023-02-19T05:34:41.736Z,0.00
2023-02-19T05:35:41.741Z,0.00
2023-02-19T05:36:41.717Z,0.00
2023-02-19T05:37:41.703Z,0.00
2023-02-19T05:38:41.700Z,0.00
2023-02-19T05:39:41.677Z,0.00
2023-02-19T05:40:41.685Z,0.00
2023-02-19T05:41:41.675Z,0.00
2023-02-19T05:42:41.655Z,0.00
2023-02-19T05:43:41.638Z,0.00
2023-02-19T05:44:41.627Z,0.00
2023-02-19T05:45:41.637Z,0.00
2023-02-19T05:46:41.637Z,0.00
2023-02-19T05:47:41.596Z,0.00
2023-02-19T05:48:41.594Z,0.00
2023-02-19T05:49:41.568Z,0.00
2023-02-19T05:50:41.599Z,0.00
2023-02-19T05:51:41.547Z,0.00
2023-02-19T05:52:41.551Z,0.00
2023-02-19T05:53:41.546Z,0.00
2023-02-19T05:54:41.532Z,0.00
2023-02-19T05:55:41.530Z,0.00
2023-02-19T05:56:41.551Z,0.00
2023-02-19T05:57:43.575Z,0.00
2023-02-19T05:58:41.490Z,0.00
2023-02-19T05:59:41.474Z,0.00
2023-02-19T06:00:41.472Z,0.00
2023-02-19T06:01:41.452Z,0.00
2023-02-19T06:02:41.472Z,0.00
2023-02-19T06:03:41.461Z,0.00
2023-02-19T06:04:41.438Z,0.00
2023-02-19T06:05:41.426Z,0.00
2023-02-19T06:06:41.399Z,0.00
2023-02-19T06:07:41.385Z,0.00
2023-02-19T06:08:41.382Z,0.00
2023-02-19T06:09:41.366Z,0.00
2023-02-19T06:10:41.375Z,0.00
2023-02-19T06:11:41.347Z,0.00
2023-02-19T06:12:41.327Z,0.00
2023-02-19T06:13:41.329Z,0.00
2023-02-19T06:14:41.311Z,0.00
2023-02-19T06:15:41.318Z,0.00
2023-02-19T06:16:41.292Z,0.00
2023-02-19T06:17:41.289Z,0.00
2023-02-19T06:18:41.347Z,0.00
2023-02-19T06:19:41.259Z,0.00
2023-02-19T06:20:41.277Z,0.00
2023-02-19T06:21:41.240Z,0.00
2023-02-19T06:22:41.228Z,0.00
2023-02-19T06:23:41.223Z,0.00
2023-02-19T06:24:41.201Z,0.00
2023-02-19T06:25:41.213Z,0.00
2023-02-19T06:26:41.182Z,0.00
2023-02-19T06:27:41.137Z,2.00
2023-02-19T06:28:41.110Z,1.00
2023-02-19T06:29:41.105Z,1.00
2023-02-19T06:30:41.105Z,1.00
2023-02-19T06:31:41.169Z,1.00
2023-02-19T06:32:41.078Z,2.00
2023-02-19T06:33:41.118Z,0.00
2023-02-19T06:34:41.058Z,2.00
2023-02-19T06:35:41.059Z,1.00
2023-02-19T06:36:41.080Z,0.00
2023-02-19T06:37:41.093Z,0.00
2023-02-19T06:38:41.023Z,1.00
2023-02-19T06:39:41.007Z,2.00
2023-02-19T06:40:41.008Z,2.00
2023-02-19T06:41:41.002Z,2.00
2023-02-19T06:42:40.962Z,1.00
2023-02-19T06:43:40.959Z,1.00
2023-02-19T06:44:40.942Z,1.00
2023-02-19T06:45:40.955Z,1.00
2023-02-19T06:46:40.959Z,3.00
2023-02-19T06:47:40.916Z,8.00
2023-02-19T06:48:40.913Z,7.00
2023-02-19T06:49:40.895Z,3.00
2023-02-19T06:50:40.896Z,5.00
2023-02-19T06:51:40.876Z,9.00
2023-02-19T06:52:40.856Z,7.00
2023-02-19T06:53:40.857Z,17.00
2023-02-19T06:54:40.852Z,13.00
2023-02-19T06:55:40.850Z,11.00
2023-02-19T06:56:40.819Z,7.00
2023-02-19T06:57:40.810Z,7.00
2023-02-19T06:58:40.798Z,7.00
2023-02-19T06:59:40.800Z,9.00
2023-02-19T07:00:40.820Z,7.00
2023-02-19T07:01:40.772Z,16.00
2023-02-19T07:02:40.750Z,8.00
2023-02-19T07:03:40.750Z,14.00
2023-02-19T07:04:40.729Z,16.00
2023-02-19T07:05:40.739Z,17.00
2023-02-19T07:06:40.715Z,18.00
2023-02-19T07:07:40.699Z,16.00
2023-02-19T07:08:40.690Z,16.00
2023-02-19T07:09:40.679Z,6.00
2023-02-19T07:10:40.691Z,11.00
2023-02-19T07:11:40.662Z,19.00
2023-02-19T07:12:40.661Z,7.00
2023-02-19T07:13:40.640Z,12.00
2023-02-19T07:14:40.622Z,16.00
2023-02-19T07:15:40.629Z,25.00
2023-02-19T07:16:40.644Z,24.00
2023-02-19T07:17:40.600Z,26.00
2023-02-19T07:18:40.581Z,24.00
2023-02-19T07:19:40.620Z,27.00
2023-02-19T07:20:40.584Z,34.00
2023-02-19T07:21:40.550Z,33.00
2023-02-19T07:22:40.531Z,35.00
2023-02-19T07:23:40.537Z,34.00
2023-02-19T07:24:40.514Z,31.00
2023-02-19T07:25:40.531Z,36.00
2023-02-19T07:26:40.495Z,36.00
2023-02-19T07:27:40.484Z,34.00
2023-02-19T07:28:40.473Z,29.00
2023-02-19T07:29:40.464Z,26.00
2023-02-19T07:30:40.551Z,31.00
2023-02-19T07:31:40.566Z,29.00
2023-02-19T07:32:40.425Z,28.00
2023-02-19T07:33:40.426Z,35.00
2023-02-19T07:34:40.410Z,35.00
2023-02-19T07:35:40.427Z,36.00
2023-02-19T07:36:40.400Z,33.00
2023-02-19T07:37:40.377Z,36.00
2023-02-19T07:38:40.366Z,33.00
2023-02-19T07:39:40.360Z,28.00
2023-02-19T07:40:40.369Z,34.00
2023-02-19T07:41:40.340Z,37.00
2023-02-19T07:42:40.329Z,34.00
2023-02-19T07:43:40.332Z,42.00
2023-02-19T07:44:40.304Z,51.00
2023-02-19T07:45:40.353Z,43.00
2023-02-19T07:46:40.283Z,37.00
2023-02-19T07:47:40.290Z,46.00
2023-02-19T07:48:40.268Z,44.00
2023-02-19T07:49:40.254Z,50.00
2023-02-19T07:50:40.265Z,47.00
2023-02-19T07:51:40.247Z,48.00
2023-02-19T07:52:40.225Z,51.00
2023-02-19T07:53:40.217Z,67.00
2023-02-19T07:54:40.218Z,73.00
2023-02-19T07:55:40.215Z,50.00
2023-02-19T07:56:40.178Z,42.00
2023-02-19T07:57:40.179Z,36.00
2023-02-19T07:58:40.164Z,43.00
2023-02-19T07:59:40.150Z,48.00
2023-02-19T08:00:40.154Z,49.00
2023-02-19T08:01:40.145Z,50.00
2023-02-19T08:02:40.121Z,54.00
2023-02-19T08:03:40.199Z,54.00
2023-02-19T08:04:40.097Z,57.00
2023-02-19T08:05:40.114Z,56.00
2023-02-19T08:06:40.072Z,55.00
2023-02-19T08:07:40.063Z,47.00
2023-02-19T08:08:40.068Z,68.00
2023-02-19T08:09:40.045Z,49.00
2023-02-19T08:10:40.038Z,56.00
2023-02-19T08:11:40.046Z,40.00
2023-02-19T08:12:40.013Z,44.00
2023-02-19T08:13:40.004Z,52.00
2023-02-19T08:14:39.991Z,37.00
2023-02-19T08:15:39.994Z,31.00
2023-02-19T08:16:43.245Z,22.00
2023-02-19T08:17:39.964Z,40.00
2023-02-19T08:18:39.953Z,40.00
2023-02-19T08:19:39.943Z,24.00
2023-02-19T08:20:39.936Z,26.00
2023-02-19T08:21:39.955Z,15.00
2023-02-19T08:22:39.905Z,18.00
2023-02-19T08:23:39.904Z,17.00
2023-02-19T08:24:39.877Z,20.00
2023-02-19T08:25:39.881Z,26.00
2023-02-19T08:26:39.877Z,13.00
2023-02-19T08:27:39.858Z,23.00
2023-02-19T08:28:39.849Z,26.00
2023-02-19T08:29:39.846Z,20.00
2023-02-19T08:30:39.920Z,28.00
2023-02-19T08:31:39.995Z,28.00
2023-02-19T08:32:39.799Z,27.00
2023-02-19T08:33:39.800Z,33.00
2023-02-19T08:34:39.780Z,28.00
2023-02-19T08:35:39.770Z,24.00
2023-02-19T08:36:39.778Z,48.00
2023-02-19T08:37:39.749Z,49.00
2023-02-19T08:38:39.731Z,53.00
2023-02-19T08:39:39.730Z,68.00
2023-02-19T08:40:39.719Z,45.00
2023-02-19T08:41:39.724Z,60.00
2023-02-19T08:42:39.695Z,50.00
2023-02-19T08:43:39.691Z,51.00
2023-02-19T08:44:39.672Z,41.00
2023-02-19T08:45:39.683Z,45.00
2023-02-19T08:46:39.672Z,68.00
2023-02-19T08:47:39.640Z,76.00
2023-02-19T08:48:39.639Z,58.00
2023-02-19T08:49:39.632Z,51.00
2023-02-19T08:50:39.602Z,45.00
2023-02-19T08:51:39.621Z,162.00
2023-02-19T08:52:39.582Z,154.00
2023-02-19T08:53:39.588Z,94.00
2023-02-19T08:54:39.562Z,65.00
2023-02-19T08:55:39.552Z,75.00
2023-02-19T08:56:39.568Z,130.00
2023-02-19T08:57:39.535Z,79.00
2023-02-19T08:58:39.524Z,90.00
2023-02-19T08:59:39.513Z,87.00
2023-02-19T09:00:39.494Z,90.00
2023-02-19T09:01:39.542Z,85.00
2023-02-19T09:02:39.491Z,64.00
2023-02-19T09:03:39.481Z,65.00
2023-02-19T09:04:39.457Z,60.00
2023-02-19T09:05:39.465Z,43.00
2023-02-19T09:06:40.128Z,55.00
2023-02-19T09:07:39.427Z,44.00
2023-02-19T09:08:39.409Z,29.00
2023-02-19T09:09:39.416Z,14.00
2023-02-19T09:10:39.384Z,8.00
2023-02-19T09:11:39.405Z,4.00
2023-02-19T09:12:39.368Z,6.00
2023-02-19T09:13:39.370Z,5.00
2023-02-19T09:14:39.361Z,8.00
2023-02-19T09:15:39.407Z,8.00
2023-02-19T09:16:39.348Z,19.00
2023-02-19T09:17:39.319Z,41.00
2023-02-19T09:18:39.307Z,32.00
2023-02-19T09:19:39.309Z,9.00
2023-02-19T09:20:39.293Z,15.00
2023-02-19T09:21:39.306Z,47.00
2023-02-19T09:22:39.266Z,52.00
2023-02-19T09:23:39.279Z,38.00
2023-02-19T09:24:39.247Z,28.00
2023-02-19T09:25:39.239Z,26.00
2023-02-19T09:26:39.263Z,31.00
2023-02-19T09:27:39.218Z,57.00
2023-02-19T09:28:39.214Z,83.00
2023-02-19T09:29:39.207Z,103.00
2023-02-19T09:30:39.187Z,45.00
2023-02-19T09:31:39.341Z,41.00
2023-02-19T09:32:39.160Z,48.00
2023-02-19T09:33:39.154Z,35.00
2023-02-19T09:34:39.139Z,30.00
2023-02-19T09:35:39.138Z,32.00
2023-02-19T09:36:39.139Z,22.00
2023-02-19T09:37:39.114Z,15.00
2023-02-19T09:38:39.099Z,16.00
2023-02-19T09:39:39.094Z,37.00
2023-02-19T09:40:39.093Z,20.00
2023-02-19T09:41:39.082Z,9.00
2023-02-19T09:42:39.065Z,31.00
2023-02-19T09:43:39.052Z,30.00
2023-02-19T09:44:39.056Z,23.00
2023-02-19T09:45:39.038Z,28.00
2023-02-19T09:46:39.059Z,25.00
2023-02-19T09:47:39.005Z,17.00
2023-02-19T09:48:39.000Z,26.00
2023-02-19T09:49:39.007Z,52.00
2023-02-19T09:50:38.968Z,34.00
2023-02-19T09:51:38.997Z,20.00
2023-02-19T09:52:38.948Z,43.00
2023-02-19T09:53:38.956Z,42.00
2023-02-19T09:54:38.927Z,36.00
2023-02-19T09:55:38.959Z,43.00
2023-02-19T09:56:38.927Z,36.00
2023-02-19T09:57:38.897Z,27.00
2023-02-19T09:58:38.896Z,66.00
2023-02-19T09:59:38.876Z,71.00
2023-02-19T10:00:38.856Z,45.00
2023-02-19T10:01:38.976Z,28.00
2023-02-19T10:02:38.843Z,57.00
2023-02-19T10:03:38.838Z,85.00
2023-02-19T10:04:38.819Z,71.00
2023-02-19T10:05:38.807Z,56.00
2023-02-19T10:06:38.816Z,37.00
2023-02-19T10:07:38.789Z,23.00
2023-02-19T10:08:38.790Z,26.00
2023-02-19T10:09:38.769Z,48.00
2023-02-19T10:10:38.758Z,59.00
2023-02-19T10:11:38.774Z,61.00
2023-02-19T10:12:38.736Z,72.00
2023-02-19T10:13:38.734Z,84.00
2023-02-19T10:14:38.727Z,66.00
2023-02-19T10:15:38.727Z,127.00
2023-02-19T10:16:38.709Z,103.00
2023-02-19T10:17:38.687Z,66.00
2023-02-19T10:18:38.671Z,104.00
2023-02-19T10:19:38.670Z,101.00
2023-02-19T10:20:38.652Z,53.00
2023-02-19T10:21:38.672Z,106.00
2023-02-19T10:22:38.642Z,133.00
2023-02-19T10:23:38.631Z,98.00
2023-02-19T10:24:38.660Z,48.00
2023-02-19T10:25:38.593Z,65.00
2023-02-19T10:26:38.603Z,93.00
2023-02-19T10:27:38.572Z,47.00
2023-02-19T10:28:38.563Z,37.00
2023-02-19T10:29:38.553Z,56.00
2023-02-19T10:30:38.590Z,42.00
2023-02-19T10:31:38.633Z,71.00
2023-02-19T10:32:38.529Z,92.00
2023-02-19T10:33:38.519Z,61.00
2023-02-19T10:34:38.507Z,26.00
2023-02-19T10:35:38.495Z,48.00
2023-02-19T10:36:38.507Z,119.00
2023-02-19T10:37:38.481Z,136.00
2023-02-19T10:38:38.461Z,100.00
2023-02-19T10:39:38.466Z,79.00
2023-02-19T10:40:38.440Z,92.00
2023-02-19T10:41:38.451Z,116.00
2023-02-19T10:42:38.430Z,81.00
2023-02-19T10:43:38.411Z,43.00
2023-02-19T10:44:38.406Z,39.00
2023-02-19T10:45:38.410Z,48.00
2023-02-19T10:46:38.466Z,47.00
2023-02-19T10:47:38.362Z,39.00
2023-02-19T10:48:38.373Z,31.00
2023-02-19T10:49:38.384Z,39.00
2023-02-19T10:50:38.353Z,32.00
2023-02-19T10:51:38.356Z,36.00
2023-02-19T10:52:38.317Z,29.00
2023-02-19T10:53:38.315Z,32.00
2023-02-19T10:54:38.295Z,44.00
2023-02-19T10:55:38.291Z,22.00
2023-02-19T10:56:38.296Z,20.00
2023-02-19T10:57:38.267Z,27.00
2023-02-19T10:58:38.257Z,35.00
2023-02-19T10:59:38.237Z,53.00
2023-02-19T11:00:38.227Z,101.00
2023-02-19T11:01:38.254Z,73.00
2023-02-19T11:02:38.207Z,71.00
2023-02-19T11:03:38.230Z,31.00
2023-02-19T11:04:38.264Z,135.00
2023-02-19T11:05:38.170Z,79.00
2023-02-19T11:06:38.187Z,64.00
2023-02-19T11:07:38.157Z,51.00
2023-02-19T11:08:38.148Z,48.00
2023-02-19T11:09:38.129Z,113.00
2023-02-19T11:10:38.129Z,315.00
2023-02-19T11:11:38.131Z,165.00
2023-02-19T11:12:38.109Z,249.00
2023-02-19T11:13:38.130Z,169.00
2023-02-19T11:14:38.102Z,128.00
2023-02-19T11:15:38.071Z,136.00
2023-02-19T11:16:38.088Z,108.00
2023-02-19T11:17:38.060Z,167.00
2023-02-19T11:18:38.041Z,124.00
2023-02-19T11:19:38.021Z,95.00
2023-02-19T11:20:38.022Z,121.00
2023-02-19T11:21:38.003Z,105.00
2023-02-19T11:22:38.014Z,138.00
2023-02-19T11:23:37.983Z,110.00
2023-02-19T11:24:37.983Z,103.00
2023-02-19T11:25:37.963Z,139.00
2023-02-19T11:26:37.953Z,168.00
2023-02-19T11:27:37.957Z,185.00
2023-02-19T11:28:37.942Z,150.00
2023-02-19T11:29:37.914Z,108.00
2023-02-19T11:30:37.935Z,148.00
2023-02-19T11:31:38.018Z,140.00
2023-02-19T11:32:37.906Z,92.00
2023-02-19T11:33:37.881Z,112.00
2023-02-19T11:34:37.896Z,115.00
2023-02-19T11:35:37.863Z,93.00
2023-02-19T11:36:37.863Z,64.00
2023-02-19T11:37:37.857Z,88.00
2023-02-19T11:38:37.830Z,96.00
2023-02-19T11:39:37.815Z,125.00
2023-02-19T11:40:37.845Z,136.00
2023-02-19T11:41:37.806Z,136.00
2023-02-19T11:42:37.805Z,77.00
2023-02-19T11:43:37.791Z,37.00
2023-02-19T11:44:37.767Z,84.00
2023-02-19T11:45:37.764Z,112.00
2023-02-19T11:46:37.776Z,113.00
2023-02-19T11:47:37.748Z,93.00
2023-02-19T11:48:37.737Z,110.00
2023-02-19T11:49:37.718Z,123.00
2023-02-19T11:50:37.714Z,125.00
2023-02-19T11:51:37.688Z,128.00
2023-02-19T11:52:37.713Z,112.00
2023-02-19T11:53:37.669Z,72.00
2023-02-19T11:54:37.671Z,71.00
2023-02-19T11:55:37.655Z,72.00
2023-02-19T11:56:37.639Z,88.00
2023-02-19T11:57:37.640Z,85.00
2023-02-19T11:58:37.620Z,80.00
2023-02-19T11:59:37.610Z,123.00
2023-02-19T12:00:37.599Z,94.00
2023-02-19T12:01:37.675Z,44.00
2023-02-19T12:02:37.597Z,58.00
2023-02-19T12:03:37.558Z,147.00
2023-02-19T12:04:37.952Z,154.00
2023-02-19T12:05:37.540Z,200.00
2023-02-19T12:06:37.532Z,191.00
2023-02-19T12:07:37.545Z,139.00
2023-02-19T12:08:37.514Z,105.00
2023-02-19T12:09:37.502Z,63.00
2023-02-19T12:10:37.511Z,96.00
2023-02-19T12:11:37.480Z,89.00
2023-02-19T12:12:37.966Z,116.00
2023-02-19T12:13:37.458Z,168.00
2023-02-19T12:14:37.451Z,182.00
2023-02-19T12:15:37.436Z,193.00
2023-02-19T12:16:37.445Z,211.00
2023-02-19T12:17:37.442Z,170.00
2023-02-19T12:18:37.403Z,273.00
2023-02-19T12:19:37.398Z,288.00
2023-02-19T12:20:37.390Z,380.00
2023-02-19T12:21:37.370Z,283.00
2023-02-19T12:22:37.383Z,275.00
2023-02-19T12:23:37.344Z,299.00
2023-02-19T12:24:37.346Z,176.00
2023-02-19T12:25:37.325Z,163.00
2023-02-19T12:26:37.320Z,139.00
2023-02-19T12:27:37.325Z,252.00
2023-02-19T12:28:37.300Z,302.00
2023-02-19T12:29:37.305Z,200.00
2023-02-19T12:30:37.339Z,343.00
2023-02-19T12:31:37.330Z,194.00
2023-02-19T12:32:37.267Z,176.00
2023-02-19T12:33:37.250Z,250.00
2023-02-19T12:34:37.238Z,123.00
2023-02-19T12:35:37.225Z,78.00
2023-02-19T12:36:37.218Z,139.00
2023-02-19T12:37:37.223Z,82.00
2023-02-19T12:38:37.213Z,100.00
2023-02-19T12:39:37.179Z,169.00
2023-02-19T12:40:37.170Z,1026.00
2023-02-19T12:41:37.162Z,731.00
2023-02-19T12:42:37.170Z,379.00
2023-02-19T12:43:37.139Z,80.00
2023-02-19T12:44:37.128Z,125.00
2023-02-19T12:45:37.160Z,373.00
2023-02-19T12:46:37.114Z,373.00
2023-02-19T12:47:37.113Z,190.00
2023-02-19T12:48:37.090Z,169.00
2023-02-19T12:49:37.074Z,129.00
2023-02-19T12:50:37.064Z,139.00
2023-02-19T12:51:37.056Z,191.00
2023-02-19T12:52:37.068Z,232.00
2023-02-19T12:53:37.037Z,139.00
2023-02-19T12:54:37.027Z,199.00
2023-02-19T12:55:37.017Z,103.00
2023-02-19T12:56:37.009Z,252.00
2023-02-19T12:57:37.017Z,387.00
2023-02-19T12:58:36.991Z,268.00
2023-02-19T12:59:36.968Z,151.00
2023-02-19T13:00:36.983Z,130.00
2023-02-19T13:01:36.982Z,153.00
2023-02-19T13:02:37.002Z,159.00
2023-02-19T13:03:36.933Z,156.00